Time;durP1;ratioP1;P1;durP2;ratioP2;P2;SDS_P1;SDS_P2;PMS_P1;PMS_P2;Temp;Humidity;BMP_temperature;BMP_pressure;BME280_temperature;BME280_humidity;BME280_pressure;Samples;Min_cycle;Max_cycle;Signal;HPM_P1;HPM_P2
2022/11/30 00:01:58;;;;;;;;;;;;;;;16.62;46.91;101723.44;102256;1325;70527;-84
2022/11/30 00:04:23;;;;;;;;;;;;;;;16.62;46.92;101727.35;102127;1329;62095;-85
2022/11/30 00:06:49;;;;;;;;;;;;;;;16.62;46.97;101731.27;102148;1323;62231;-84
2022/11/30 00:09:14;;;;;;;;;;;;;;;16.62;46.93;101732.16;102214;1328;62133;-84
2022/11/30 00:11:39;;;;;;;;;;;;;;;16.62;46.89;101733.59;102170;1320;62134;-84
2022/11/30 00:14:05;;;;;;;;;;;;;;;16.62;46.95;101735.01;102160;1326;62122;-84
2022/11/30 00:16:30;;;;;;;;;;;;;;;16.61;46.93;101736.27;102168;1324;62183;-83
2022/11/30 00:18:56;;;;;;;;;;;;;;;16.62;46.90;101733.59;102127;1319;62147;-84
2022/11/30 00:21:21;;;;;;;;;;;;;;;16.61;46.94;101733.96;102246;1325;62109;-83
2022/11/30 00:23:47;;;;;;;;;;;;;;;16.61;46.88;101729.52;102189;1325;62082;-84
2022/11/30 00:26:16;;;;;;;;;;;;;;;16.61;46.85;101728.45;102159;1329;62086;-84
2022/11/30 00:28:42;;;;;;;;;;;;;;;16.61;46.85;101727.02;102155;1329;75543;-83
2022/11/30 00:31:09;;;;;;;;;;;;;;;16.61;46.94;101726.34;102188;1323;62128;-83
2022/11/30 00:33:35;;;;;;;;;;;;;;;16.61;46.91;101721.88;102172;1325;61997;-83
2022/11/30 00:36:24;;;;;;;;;;;;;;;16.61;46.79;101722.42;102152;1325;62972;-83
2022/11/30 00:38:49;;;;;;;;;;;;;;;16.61;46.77;101720.83;101834;1332;75242;-83
2022/11/30 00:41:16;;;;;;;;;;;;;;;16.60;46.89;101719.05;101802;1332;63336;-83
2022/11/30 00:43:41;;;;;;;;;;;;;;;16.61;46.82;101715.67;101741;1334;62251;-83
2022/11/30 00:46:09;;;;;;;;;;;;;;;16.61;46.88;101719.77;101742;1334;62148;-83
2022/11/30 00:48:35;;;;;;;;;;;;;;;16.61;46.92;101719.40;101796;1333;62277;-84
2022/11/30 00:51:00;;;;;;;;;;;;;;;16.61;46.81;101719.94;101783;1333;62105;-84
2022/11/30 00:53:26;;;;;;;;;;;;;;;16.60;46.81;101714.45;101789;1337;61476;-84
2022/11/30 00:55:51;;;;;;;;;;;;;;;16.61;46.93;101715.31;101795;1336;62573;-83
2022/11/30 00:58:17;;;;;;;;;;;;;;;16.61;46.83;101710.52;101771;1334;62147;-84
2022/11/30 01:00:42;;;;;;;;;;;;;;;16.61;46.80;101708.39;101710;1322;62402;-83
2022/11/30 01:03:10;;;;;;;;;;;;;;;16.60;46.86;101709.30;101786;1338;62207;-83
2022/11/30 01:05:36;;;;;;;;;;;;;;;16.60;46.80;101711.08;101828;1338;62288;-83
2022/11/30 01:08:01;;;;;;;;;;;;;;;16.60;46.86;101720.13;101740;1334;62225;-83
2022/11/30 01:10:27;;;;;;;;;;;;;;;16.61;46.80;101722.61;101730;1339;62033;-84
2022/11/30 01:12:52;;;;;;;;;;;;;;;16.61;46.83;101721.19;101771;1338;62353;-83
2022/11/30 01:15:18;;;;;;;;;;;;;;;16.59;46.89;101716.96;101808;1326;62147;-83
2022/11/30 01:17:43;;;;;;;;;;;;;;;16.60;46.68;101716.41;102241;1326;62196;-84
2022/11/30 01:20:09;;;;;;;;;;;;;;;16.60;46.76;101711.27;102166;1326;62080;-84
2022/11/30 01:22:35;;;;;;;;;;;;;;;16.59;46.76;101709.83;102135;1325;62136;-84
2022/11/30 01:25:00;;;;;;;;;;;;;;;16.59;46.68;101708.95;102180;1326;62089;-84
2022/11/30 01:27:26;;;;;;;;;;;;;;;16.59;46.70;101707.00;102182;1326;62191;-84
2022/11/30 01:29:51;;;;;;;;;;;;;;;16.59;46.75;101703.10;102220;1332;62088;-84
2022/11/30 01:32:17;;;;;;;;;;;;;;;16.60;46.82;101706.45;102172;1325;62218;-84
2022/11/30 01:34:42;;;;;;;;;;;;;;;16.59;46.75;101703.13;102122;1320;62849;-83
2022/11/30 01:37:07;;;;;;;;;;;;;;;16.59;46.82;101702.40;102133;1326;62359;-85
2022/11/30 01:39:33;;;;;;;;;;;;;;;16.59;46.83;101695.83;102200;1329;62138;-84
2022/11/30 01:41:58;;;;;;;;;;;;;;;16.59;46.72;101694.58;102194;1316;62168;-84
2022/11/30 01:44:27;;;;;;;;;;;;;;;16.59;46.73;101688.19;102274;1325;62098;-84
2022/11/30 01:47:02;;;;;;;;;;;;;;;16.59;46.71;101685.52;102242;1326;75374;-85
2022/11/30 01:49:35;;;;;;;;;;;;;;;16.59;46.73;101688.19;102159;1319;61987;-85
2022/11/30 01:52:02;;;;;;;;;;;;;;;16.59;46.80;101681.09;102203;1323;61879;-84
2022/11/30 01:54:29;;;;;;;;;;;;;;;16.59;46.76;101679.13;102167;1326;72906;-84
2022/11/30 01:56:55;;;;;;;;;;;;;;;16.58;46.78;101679.51;102158;1325;76724;-84
2022/11/30 01:59:21;;;;;;;;;;;;;;;16.58;46.68;101678.98;102173;1326;62128;-84
2022/11/30 02:01:46;;;;;;;;;;;;;;;16.58;46.77;101676.66;102173;1326;62172;-84
2022/11/30 02:04:11;;;;;;;;;;;;;;;16.58;46.76;101672.77;102142;1325;62133;-84
2022/11/30 02:06:37;;;;;;;;;;;;;;;16.57;46.68;101664.59;102257;1325;62107;-83
2022/11/30 02:09:02;;;;;;;;;;;;;;;16.58;46.63;101664.77;102190;1325;62196;-83
2022/11/30 02:11:28;;;;;;;;;;;;;;;16.58;46.68;101664.23;102142;1326;62332;-83
2022/11/30 02:14:20;;;;;;;;;;;;;;;16.57;46.57;101671.00;102171;1332;62117;-84
2022/11/30 02:16:48;;;;;;;;;;;;;;;16.57;46.68;101675.27;102073;1326;73452;-83
2022/11/30 02:19:27;;;;;;;;;;;;;;;16.57;46.62;101673.31;102211;1325;76303;-84
2022/11/30 02:21:59;;;;;;;;;;;;;;;16.57;46.67;101672.24;102186;1326;62133;-84
2022/11/30 02:24:51;;;;;;;;;;;;;;;16.58;46.70;101666.90;102191;1326;62071;-84
2022/11/30 02:27:26;;;;;;;;;;;;;;;16.57;46.72;101674.36;102047;1323;73482;-84
2022/11/30 02:30:02;;;;;;;;;;;;;;;16.57;46.62;101680.43;102209;1325;76274;-84
2022/11/30 02:32:29;;;;;;;;;;;;;;;16.57;46.70;101683.09;102104;1325;61991;-84
2022/11/30 02:34:55;;;;;;;;;;;;;;;16.57;46.66;101687.90;102051;1323;62022;-84
2022/11/30 02:37:20;;;;;;;;;;;;;;;16.57;46.71;101702.11;102110;1329;62088;-85
2022/11/30 02:39:46;;;;;;;;;;;;;;;16.57;46.74;101705.50;102070;1329;62145;-84
2022/11/30 02:42:12;;;;;;;;;;;;;;;16.57;46.65;101703.72;102053;1332;62196;-84
2022/11/30 02:44:38;;;;;;;;;;;;;;;16.57;46.68;101701.42;102096;1326;62161;-84
2022/11/30 02:47:06;;;;;;;;;;;;;;;16.57;46.68;101706.38;102233;1325;62200;-84
2022/11/30 02:49:34;;;;;;;;;;;;;;;16.57;46.63;101704.61;102112;1319;72559;-84
2022/11/30 02:52:00;;;;;;;;;;;;;;;16.57;46.70;101697.52;102083;1329;76328;-84
2022/11/30 02:54:25;;;;;;;;;;;;;;;16.57;46.63;101686.84;102106;1328;62202;-83
2022/11/30 02:56:51;;;;;;;;;;;;;;;16.57;46.66;101681.87;102083;1329;62153;-85
2022/11/30 02:59:16;;;;;;;;;;;;;;;16.57;46.63;101686.14;102045;1333;62105;-83
2022/11/30 03:01:44;;;;;;;;;;;;;;;16.56;46.63;101692.20;102085;1323;62159;-84
2022/11/30 03:04:09;;;;;;;;;;;;;;;16.56;46.63;101705.52;102084;1326;76462;-85
2022/11/30 03:06:35;;;;;;;;;;;;;;;16.56;46.61;101712.80;102093;1328;62112;-84
2022/11/30 03:09:01;;;;;;;;;;;;;;;16.56;46.63;101720.63;102055;1328;62158;-83
2022/11/30 03:11:27;;;;;;;;;;;;;;;16.56;46.61;101722.59;102081;1328;62167;-84
2022/11/30 03:13:53;;;;;;;;;;;;;;;16.56;46.63;101722.40;102071;1326;62218;-83
2022/11/30 03:16:18;;;;;;;;;;;;;;;16.56;46.61;101721.53;102189;1324;62186;-84
2022/11/30 03:18:43;;;;;;;;;;;;;;;16.56;46.55;101717.27;102094;1323;61877;-84
2022/11/30 03:21:09;;;;;;;;;;;;;;;16.56;46.59;101719.76;102116;1329;62131;-84
2022/11/30 03:23:35;;;;;;;;;;;;;;;16.56;46.50;101716.58;102090;1328;62145;-84
2022/11/30 03:26:01;;;;;;;;;;;;;;;16.56;46.61;101716.20;102114;1325;62083;-83
2022/11/30 03:28:26;;;;;;;;;;;;;;;16.56;46.62;101716.37;102089;1331;62209;-84
2022/11/30 03:30:52;;;;;;;;;;;;;;;16.56;46.60;101714.23;102177;1322;62160;-83
2022/11/30 03:33:17;;;;;;;;;;;;;;;16.56;46.54;101715.85;102197;1325;62256;-83
2022/11/30 03:35:43;;;;;;;;;;;;;;;16.55;46.54;101712.48;102146;1328;62133;-84
2022/11/30 03:38:08;;;;;;;;;;;;;;;16.55;46.58;101710.89;102179;1325;62198;-83
2022/11/30 03:40:37;;;;;;;;;;;;;;;16.55;46.47;101717.45;102203;1326;62134;-84
2022/11/30 03:43:02;;;;;;;;;;;;;;;16.55;46.57;101711.60;102134;1325;62234;-84
2022/11/30 03:45:28;;;;;;;;;;;;;;;16.55;46.48;101708.41;102167;1324;62032;-84
2022/11/30 03:47:53;;;;;;;;;;;;;;;16.54;46.56;101700.61;102144;1325;62116;-83
2022/11/30 03:50:19;;;;;;;;;;;;;;;16.55;46.45;101701.13;102233;1325;62235;-83
2022/11/30 03:52:44;;;;;;;;;;;;;;;16.54;46.50;101692.80;102202;1323;62465;-83
2022/11/30 03:55:10;;;;;;;;;;;;;;;16.55;46.55;101687.09;102168;1323;62126;-84
2022/11/30 03:57:35;;;;;;;;;;;;;;;16.54;46.52;101684.09;102119;1325;62135;-83
2022/11/30 04:00:00;;;;;;;;;;;;;;;16.54;46.46;101683.58;102166;1329;62160;-84
2022/11/30 04:02:26;;;;;;;;;;;;;;;16.54;46.48;101689.59;102138;1319;62139;-84
2022/11/30 04:04:51;;;;;;;;;;;;;;;16.54;46.48;101693.52;102170;1325;62105;-83
2022/11/30 04:07:17;;;;;;;;;;;;;;;16.54;46.48;101700.46;102133;1326;62233;-84
2022/11/30 04:09:42;;;;;;;;;;;;;;;16.54;46.54;101699.56;102147;1323;62504;-83
2022/11/30 04:12:08;;;;;;;;;;;;;;;16.54;46.44;101704.35;102183;1329;62224;-83
2022/11/30 04:14:33;;;;;;;;;;;;;;;16.54;46.52;101705.08;102192;1326;62126;-84
2022/11/30 04:16:58;;;;;;;;;;;;;;;16.54;46.48;101704.71;102170;1329;62107;-83
2022/11/30 04:19:24;;;;;;;;;;;;;;;16.54;46.49;101709.89;102265;1322;62158;-84
2022/11/30 04:21:50;;;;;;;;;;;;;;;16.53;46.50;101721.27;102122;1326;62147;-83
2022/11/30 04:24:15;;;;;;;;;;;;;;;16.54;46.41;101717.52;102139;1325;62570;-84
2022/11/30 04:26:41;;;;;;;;;;;;;;;16.53;46.48;101718.24;102195;1325;62089;-84
2022/11/30 04:29:06;;;;;;;;;;;;;;;16.54;46.42;101720.90;102151;1322;62160;-84
2022/11/30 04:31:32;;;;;;;;;;;;;;;16.54;46.48;101719.66;102120;1333;62082;-85
2022/11/30 04:33:57;;;;;;;;;;;;;;;16.53;46.40;101722.15;102271;1325;62117;-84
2022/11/30 04:36:23;;;;;;;;;;;;;;;16.53;46.55;101730.52;102075;1325;62064;-84
2022/11/30 04:38:48;;;;;;;;;;;;;;;16.53;46.54;101735.14;102174;1329;62121;-83
2022/11/30 04:41:13;;;;;;;;;;;;;;;16.53;46.49;101728.38;102089;1325;62566;-84
2022/11/30 04:43:39;;;;;;;;;;;;;;;16.53;46.42;101730.52;102130;1325;62346;-83
2022/11/30 04:46:04;;;;;;;;;;;;;;;16.53;46.42;101729.64;102124;1326;62120;-83
2022/11/30 04:48:30;;;;;;;;;;;;;;;16.53;46.41;101730.36;102114;1326;62235;-81
2022/11/30 04:50:59;;;;;;;;;;;;;;;16.53;46.40;101729.29;102132;1325;62167;-83
2022/11/30 04:53:25;;;;;;;;;;;;;;;16.52;46.41;101732.86;102142;1323;62012;-83
2022/11/30 04:55:50;;;;;;;;;;;;;;;16.52;46.48;101730.02;102259;1316;62087;-83
2022/11/30 04:58:15;;;;;;;;;;;;;;;16.53;46.44;101726.63;102106;1329;62143;-84
2022/11/30 05:00:41;;;;;;;;;;;;;;;16.52;46.48;101718.47;102182;1325;62208;-83
2022/11/30 05:03:06;;;;;;;;;;;;;;;16.52;46.38;101711.00;102136;1323;62288;-83
2022/11/30 05:05:32;;;;;;;;;;;;;;;16.52;46.44;101708.88;102139;1325;62238;-83
2022/11/30 05:07:57;;;;;;;;;;;;;;;16.52;46.36;101715.62;102252;1326;62080;-83
2022/11/30 05:10:26;;;;;;;;;;;;;;;16.52;46.39;101715.46;102107;1329;62230;-83
2022/11/30 05:12:51;;;;;;;;;;;;;;;16.52;46.43;101711.91;102237;1323;62282;-81
2022/11/30 05:15:17;;;;;;;;;;;;;;;16.51;46.45;101711.91;102133;1325;62057;-82
2022/11/30 05:17:42;;;;;;;;;;;;;;;16.52;46.37;101711.54;102110;1329;62119;-83
2022/11/30 05:20:08;;;;;;;;;;;;;;;16.52;46.37;101709.43;102109;1329;62043;-85
2022/11/30 05:22:36;;;;;;;;;;;;;;;16.52;46.30;101717.77;102119;1329;62093;-83
2022/11/30 05:25:02;;;;;;;;;;;;;;;16.52;46.32;101713.88;102105;1325;75391;-84
2022/11/30 05:27:27;;;;;;;;;;;;;;;16.51;46.38;101711.94;102100;1329;62127;-83
2022/11/30 05:29:52;;;;;;;;;;;;;;;16.51;46.35;101716.91;102101;1325;62120;-83
2022/11/30 05:32:18;;;;;;;;;;;;;;;16.51;46.28;101721.36;102179;1325;62173;-83
2022/11/30 05:34:43;;;;;;;;;;;;;;;16.51;46.34;101718.70;102170;1329;62256;-84
2022/11/30 05:37:09;;;;;;;;;;;;;;;16.51;46.33;101717.44;102177;1313;62050;-84
2022/11/30 05:39:34;;;;;;;;;;;;;;;16.51;46.33;101723.31;102194;1326;62200;-84
2022/11/30 05:41:59;;;;;;;;;;;;;;;16.51;46.36;101725.27;102163;1324;62195;-85
2022/11/30 05:44:25;;;;;;;;;;;;;;;16.51;46.35;101722.44;102156;1317;62127;-85
2022/11/30 05:46:50;;;;;;;;;;;;;;;16.51;46.32;101729.02;102084;1328;71383;-84
2022/11/30 05:49:15;;;;;;;;;;;;;;;16.51;46.30;101736.30;102157;1330;62158;-84
2022/11/30 05:51:41;;;;;;;;;;;;;;;16.51;46.35;101732.40;100164;1326;2935139;-84
2022/11/30 05:54:06;;;;;;;;;;;;;;;16.51;46.34;101731.15;102137;1330;62091;-85
2022/11/30 05:56:32;;;;;;;;;;;;;;;16.50;46.26;101739.16;102195;1326;62124;-84
2022/11/30 05:58:57;;;;;;;;;;;;;;;16.50;46.22;101741.46;102180;1330;62101;-84
2022/11/30 06:01:23;;;;;;;;;;;;;;;16.51;46.32;101742.52;102210;1325;62122;-84
2022/11/30 06:03:49;;;;;;;;;;;;;;;16.50;46.28;101750.00;102157;1326;76416;-84
2022/11/30 06:06:15;;;;;;;;;;;;;;;16.51;46.26;101749.98;102136;1326;62073;-84
2022/11/30 06:08:40;;;;;;;;;;;;;;;16.51;46.32;101754.59;102168;1325;62080;-85
2022/11/30 06:11:06;;;;;;;;;;;;;;;16.51;46.34;101753.90;102153;1324;62133;-85
2022/11/30 06:13:31;;;;;;;;;;;;;;;16.51;46.32;101751.04;102106;1326;62121;-84
2022/11/30 06:15:58;;;;;;;;;;;;;;;16.51;46.31;101755.66;102235;1325;62206;-84
2022/11/30 06:18:23;;;;;;;;;;;;;;;16.51;46.35;101759.40;102152;1326;62006;-84
2022/11/30 06:20:48;;;;;;;;;;;;;;;16.51;46.26;101754.42;102126;1327;63328;-84
2022/11/30 06:23:16;;;;;;;;;;;;;;;16.51;46.26;101756.91;102163;1325;62208;-84
2022/11/30 06:25:41;;;;;;;;;;;;;;;16.51;46.19;101764.90;102151;1327;62128;-86
2022/11/30 06:28:10;;;;;;;;;;;;;;;16.51;46.24;101768.27;102133;1326;62191;-84
2022/11/30 06:30:35;;;;;;;;;;;;;;;16.51;46.19;101772.16;102126;1326;62215;-84
2022/11/30 06:33:01;;;;;;;;;;;;;;;16.51;46.19;101774.13;102115;1331;62196;-84
2022/11/30 06:35:27;;;;;;;;;;;;;;;16.51;46.19;101776.27;102189;1325;62206;-85
2022/11/30 06:37:53;;;;;;;;;;;;;;;16.51;46.25;101779.63;102238;1325;62126;-83
2022/11/30 06:40:19;;;;;;;;;;;;;;;16.51;46.15;101780.16;102175;1325;62190;-84
2022/11/30 06:42:44;;;;;;;;;;;;;;;16.51;46.29;101780.00;102209;1326;62128;-84
2022/11/30 06:45:09;;;;;;;;;;;;;;;16.51;46.17;101783.89;102153;1323;72302;-85
2022/11/30 06:47:35;;;;;;;;;;;;;;;16.51;46.24;101784.45;102153;1325;62285;-85
2022/11/30 06:50:00;;;;;;;;;;;;;;;16.51;46.27;101783.37;102177;1316;62129;-85
2022/11/30 06:52:26;;;;;;;;;;;;;;;16.51;46.16;101784.09;102120;1326;62259;-84
2022/11/30 06:54:51;;;;;;;;;;;;;;;16.51;46.22;101788.52;102208;1325;62075;-84
2022/11/30 06:57:19;;;;;;;;;;;;;;;16.51;46.19;101791.36;102177;1325;62243;-83
2022/11/30 06:59:45;;;;;;;;;;;;;;;16.52;46.13;101795.45;102250;1324;75372;-83
2022/11/30 07:02:11;;;;;;;;;;;;;;;16.51;46.18;101801.48;102183;1325;62137;-83
2022/11/30 07:04:36;;;;;;;;;;;;;;;16.52;46.23;101806.29;102160;1327;62148;-83
2022/11/30 07:07:02;;;;;;;;;;;;;;;16.52;46.19;101804.85;102160;1326;62342;-83
2022/11/30 07:09:28;;;;;;;;;;;;;;;16.52;46.16;101800.05;102168;1325;62015;-83
2022/11/30 07:11:53;;;;;;;;;;;;;;;16.52;46.21;101798.98;102240;1325;62102;-83
2022/11/30 07:14:19;;;;;;;;;;;;;;;16.52;46.14;101799.67;102203;1322;62132;-83
2022/11/30 07:16:44;;;;;;;;;;;;;;;16.52;46.10;101800.58;102179;1326;62160;-83
2022/11/30 07:19:10;;;;;;;;;;;;;;;16.52;46.09;101805.21;102142;1326;62228;-83
2022/11/30 07:21:35;;;;;;;;;;;;;;;16.52;46.16;101804.14;102157;1325;62168;-83
2022/11/30 07:26:46;;;;;;;;;;;;;;;16.52;46.10;101805.02;102194;1326;62235;-83
2022/11/30 07:29:11;;;;;;;;;;;;;;;16.52;46.07;101810.70;102137;1319;73721;-83
2022/11/30 07:31:37;;;;;;;;;;;;;;;16.52;46.06;101818.19;102090;1326;63297;-83
2022/11/30 07:34:05;;;;;;;;;;;;;;;16.52;46.08;101815.17;102099;1328;62197;-84
2022/11/30 07:36:31;;;;;;;;;;;;;;;16.52;46.05;101814.27;102095;1328;62135;-84
2022/11/30 07:38:56;;;;;;;;;;;;;;;16.52;46.01;101823.50;102065;1328;62070;-84
2022/11/30 07:41:22;;;;;;;;;;;;;;;16.51;46.02;101824.95;102079;1325;62197;-84
2022/11/30 07:43:47;;;;;;;;;;;;;;;16.52;46.05;101822.61;102094;1326;62115;-84
2022/11/30 07:46:14;;;;;;;;;;;;;;;16.51;46.01;101825.29;102115;1328;62134;-84
2022/11/30 07:48:41;;;;;;;;;;;;;;;16.52;46.02;101827.59;102097;1328;62060;-84
2022/11/30 07:51:08;;;;;;;;;;;;;;;16.52;46.02;101832.57;102073;1330;73766;-84
2022/11/30 07:54:00;;;;;;;;;;;;;;;16.52;46.00;101835.07;102177;1325;76501;-84
2022/11/30 07:56:26;;;;;;;;;;;;;;;16.52;46.12;101837.01;101808;1334;62391;-84
2022/11/30 07:58:52;;;;;;;;;;;;;;;16.52;46.10;101837.73;101730;1334;62273;-84
2022/11/30 08:01:23;;;;;;;;;;;;;;;16.52;46.01;101836.13;101752;1334;62157;-84
2022/11/30 08:03:48;;;;;;;;;;;;;;;16.52;46.06;101832.37;101610;1337;75318;-84
2022/11/30 08:06:15;;;;;;;;;;;;;;;16.52;46.03;101839.14;101733;1340;62157;-84
2022/11/30 08:08:43;;;;;;;;;;;;;;;16.52;46.07;101838.95;101798;1334;63085;-84
2022/11/30 08:11:09;;;;;;;;;;;;;;;16.52;46.04;101841.45;101743;1334;72428;-83
2022/11/30 08:13:35;;;;;;;;;;;;;;;16.52;46.00;101841.27;101724;1341;62142;-84
2022/11/30 08:16:07;;;;;;;;;;;;;;;16.52;46.06;101835.58;101714;1336;62158;-84
2022/11/30 08:18:32;;;;;;;;;;;;;;;16.52;46.02;101824.57;101695;1336;62042;-84
2022/11/30 08:20:58;;;;;;;;;;;;;;;16.52;45.99;101820.83;101693;1334;62115;-84
2022/11/30 08:23:24;;;;;;;;;;;;;;;16.52;45.91;101821.90;101710;1337;62107;-84
2022/11/30 08:25:50;;;;;;;;;;;;;;;16.52;46.03;101819.76;101800;1338;62152;-84
2022/11/30 08:28:15;;;;;;;;;;;;;;;16.52;45.96;101816.95;101730;1333;62259;-84
2022/11/30 08:30:41;;;;;;;;;;;;;;;16.52;45.96;101826.35;101768;1337;62160;-84
2022/11/30 08:33:06;;;;;;;;;;;;;;;16.52;46.02;101841.64;101938;1330;71427;-84
2022/11/30 08:35:32;;;;;;;;;;;;;;;16.52;45.94;101850.70;102278;1326;62271;-84
2022/11/30 08:37:57;;;;;;;;;;;;;;;16.51;45.96;101850.35;102158;1325;62095;-84
2022/11/30 08:40:22;;;;;;;;;;;;;;;16.51;45.97;101852.14;102165;1325;62129;-84
2022/11/30 08:42:48;;;;;;;;;;;;;;;16.51;45.95;101855.34;102175;1325;62130;-84
2022/11/30 08:45:13;;;;;;;;;;;;;;;16.51;45.94;101855.35;102096;1331;62136;-84
2022/11/30 08:47:39;;;;;;;;;;;;;;;16.51;46.01;101855.88;102207;1315;62120;-84
2022/11/30 08:50:04;;;;;;;;;;;;;;;16.51;45.86;101848.59;102172;1320;62221;-83
2022/11/30 08:52:30;;;;;;;;;;;;;;;16.50;45.86;101848.62;102178;1323;62250;-84
2022/11/30 08:55:19;;;;;;;;;;;;;;;16.50;45.92;101846.15;102192;1325;62231;-84
2022/11/30 08:57:44;;;;;;;;;;;;;;;16.50;45.87;101843.48;101822;1334;72803;-84
2022/11/30 09:00:10;;;;;;;;;;;;;;;16.51;45.82;101835.27;101772;1331;62096;-85
2022/11/30 09:02:35;;;;;;;;;;;;;;;16.50;45.88;101826.60;101782;1338;62216;-84
2022/11/30 09:05:01;;;;;;;;;;;;;;;16.51;45.88;101829.60;101780;1334;62101;-84
2022/11/30 09:07:26;;;;;;;;;;;;;;;16.50;45.90;101830.33;101824;1331;62248;-85
2022/11/30 09:09:52;;;;;;;;;;;;;;;16.51;45.91;101830.66;101782;1334;72449;-85
2022/11/30 09:12:17;;;;;;;;;;;;;;;16.50;45.88;101829.79;101790;1334;62093;-83
2022/11/30 09:14:44;;;;;;;;;;;;;;;16.50;45.95;101825.34;101816;1335;62141;-84
2022/11/30 09:17:09;;;;;;;;;;;;;;;16.51;45.85;101824.98;101823;1338;62254;-84
2022/11/30 09:19:35;;;;;;;;;;;;;;;16.50;45.70;101823.75;101770;1334;62158;-83
2022/11/30 09:22:00;;;;;;;;;;;;;;;16.50;45.91;101827.85;101805;1332;62193;-84
2022/11/30 09:24:26;;;;;;;;;;;;;;;16.50;45.88;101822.52;101761;1334;76525;-84
2022/11/30 09:26:53;;;;;;;;;;;;;;;16.50;45.77;101810.08;101774;1335;62218;-83
2022/11/30 09:29:19;;;;;;;;;;;;;;;16.50;45.84;101807.23;101805;1332;62249;-84
2022/11/30 09:31:44;;;;;;;;;;;;;;;16.51;45.81;101801.34;101801;1333;62181;-84
2022/11/30 09:34:10;;;;;;;;;;;;;;;16.50;45.77;101797.27;101841;1338;62159;-83
2022/11/30 09:36:35;;;;;;;;;;;;;;;16.50;45.82;101789.45;102126;1326;62149;-84
2022/11/30 09:39:01;;;;;;;;;;;;;;;16.50;45.84;101785.38;102183;1325;59489;-84
2022/11/30 09:41:45;;;;;;;;;;;;;;;16.50;45.82;101790.69;102215;1326;62149;-84
2022/11/30 09:44:26;;;;;;;;;;;;;;;16.50;45.78;101792.84;102233;1324;73562;-83
2022/11/30 09:47:09;;;;;;;;;;;;;;;16.50;45.73;101796.22;102253;1325;75422;-84
2022/11/30 09:49:44;;;;;;;;;;;;;;;16.50;45.82;101793.52;102266;1329;62112;-83
2022/11/30 09:52:28;;;;;;;;;;;;;;;16.50;45.72;101794.27;102147;1323;62692;-84
2022/11/30 09:54:54;;;;;;;;;;;;;;;16.50;45.81;101795.16;102271;1326;72787;-84
2022/11/30 09:57:29;;;;;;;;;;;;;;;16.49;45.81;101791.09;102125;1326;62120;-85
2022/11/30 10:00:14;;;;;;;;;;;;;;;16.50;45.76;101788.94;102194;1326;61843;-83
2022/11/30 10:02:40;;;;;;;;;;;;;;;16.49;45.71;101785.23;102143;1326;62546;-83
2022/11/30 10:05:11;;;;;;;;;;;;;;;16.49;45.80;101786.14;102166;1326;62240;-84
2022/11/30 10:07:48;;;;;;;;;;;;;;;16.48;45.72;101787.56;102239;1326;76573;-84
2022/11/30 10:10:33;;;;;;;;;;;;;;;16.48;45.81;101784.20;102280;1326;63056;-84
2022/11/30 10:16:18;;;;;;;;;;;;;;;16.48;45.75;101778.88;101913;1330;72597;-84
2022/11/30 10:18:43;;;;;;;;;;;;;;;16.48;45.68;101783.86;101945;1328;76319;-84
2022/11/30 10:21:16;;;;;;;;;;;;;;;16.48;45.76;101781.18;101908;1335;62119;-84
2022/11/30 10:24:01;;;;;;;;;;;;;;;16.48;45.70;101777.63;101960;1331;62312;-84
2022/11/30 10:26:34;;;;;;;;;;;;;;;16.48;45.70;101774.79;101876;1329;72936;-84
2022/11/30 10:29:05;;;;;;;;;;;;;;;16.48;45.74;101773.36;101950;1328;75443;-84
2022/11/30 10:31:33;;;;;;;;;;;;;;;16.47;45.76;101770.89;101911;1332;62126;-84
2022/11/30 10:34:09;;;;;;;;;;;;;;;16.47;45.74;101767.88;101922;1325;62176;-84
2022/11/30 10:36:41;;;;;;;;;;;;;;;16.48;45.77;101762.72;101952;1328;72662;-83
2022/11/30 10:39:16;;;;;;;;;;;;;;;16.48;45.75;101762.53;101926;1333;75365;-83
2022/11/30 10:41:43;;;;;;;;;;;;;;;16.47;45.71;101754.36;101930;1330;62195;-84
2022/11/30 10:44:15;;;;;;;;;;;;;;;16.47;45.75;101747.60;101907;1332;62207;-84
2022/11/30 10:46:42;;;;;;;;;;;;;;;16.47;45.69;101748.15;101939;1332;73776;-84
2022/11/30 10:49:26;;;;;;;;;;;;;;;16.48;45.69;101746.53;101894;1335;75219;-84
2022/11/30 10:51:52;;;;;;;;;;;;;;;16.47;45.74;101742.83;101954;1329;62125;-84
2022/11/30 10:54:19;;;;;;;;;;;;;;;16.47;45.63;101744.79;102149;1326;62125;-86
2022/11/30 10:56:44;;;;;;;;;;;;;;;16.48;45.77;101744.23;102151;1326;62556;-84
2022/11/30 10:59:23;;;;;;;;;;;;;;;16.47;45.67;101748.34;102146;1325;62124;-84
2022/11/30 11:01:49;;;;;;;;;;;;;;;16.47;45.63;101749.02;102275;1329;62070;-83
2022/11/30 11:04:15;;;;;;;;;;;;;;;16.47;45.70;101746.22;102172;1326;62260;-84
2022/11/30 11:06:51;;;;;;;;;;;;;;;16.47;45.70;101747.46;102165;1325;62135;-84
2022/11/30 11:09:26;;;;;;;;;;;;;;;16.47;45.63;101743.02;102221;1327;76339;-84
2022/11/30 11:11:59;;;;;;;;;;;;;;;16.46;45.67;101745.86;102161;1323;62165;-85
2022/11/30 11:14:25;;;;;;;;;;;;;;;16.46;45.57;101746.23;102158;1327;62263;-84
2022/11/30 11:17:00;;;;;;;;;;;;;;;16.46;45.63;101744.11;102166;1324;62075;-84
2022/11/30 11:19:36;;;;;;;;;;;;;;;16.46;45.66;101743.77;102196;1324;76555;-84
2022/11/30 11:22:20;;;;;;;;;;;;;;;16.45;45.70;101746.10;102171;1326;61970;-84
2022/11/30 11:24:46;;;;;;;;;;;;;;;16.46;45.59;101746.08;102272;1329;62104;-84
2022/11/30 11:27:30;;;;;;;;;;;;;;;16.45;45.72;101748.41;102157;1326;62127;-84
2022/11/30 11:29:59;;;;;;;;;;;;;;;16.46;45.71;101751.06;102194;1329;75347;-84
2022/11/30 11:32:24;;;;;;;;;;;;;;;16.46;45.59;101752.48;102191;1325;61962;-84
2022/11/30 11:34:50;;;;;;;;;;;;;;;16.46;45.68;101759.94;102161;1326;62184;-84
2022/11/30 11:37:17;;;;;;;;;;;;;;;16.45;45.64;101775.78;102163;1324;62111;-84
2022/11/30 11:39:43;;;;;;;;;;;;;;;16.46;45.68;101784.98;102168;1330;62105;-84
2022/11/30 11:42:13;;;;;;;;;;;;;;;16.45;45.53;101779.50;102133;1329;62139;-84
2022/11/30 11:44:38;;;;;;;;;;;;;;;16.45;45.56;101775.24;102174;1323;62016;-83
2022/11/30 11:47:05;;;;;;;;;;;;;;;16.45;45.58;101776.13;102179;1330;62090;-83
2022/11/30 11:49:33;;;;;;;;;;;;;;;16.45;45.64;101782.00;102136;1325;62188;-84
2022/11/30 11:51:59;;;;;;;;;;;;;;;16.45;45.53;101780.92;102282;1325;62089;-83
2022/11/30 11:54:34;;;;;;;;;;;;;;;16.45;45.52;101780.39;101979;1329;62092;-84
2022/11/30 11:57:00;;;;;;;;;;;;;;;16.45;45.57;101783.77;102199;1326;73551;-83
2022/11/30 11:59:31;;;;;;;;;;;;;;;16.45;45.68;101788.05;102167;1329;62217;-84
2022/11/30 12:02:06;;;;;;;;;;;;;;;16.44;45.58;101789.48;102252;1325;61980;-84
2022/11/30 12:04:31;;;;;;;;;;;;;;;16.44;45.56;101779.18;102255;1312;62114;-84
2022/11/30 12:06:57;;;;;;;;;;;;;;;16.44;45.61;101783.27;102309;1329;62256;-84
2022/11/30 12:09:24;;;;;;;;;;;;;;;16.44;45.60;101786.49;102194;1327;62237;-83
2022/11/30 12:11:49;;;;;;;;;;;;;;;16.44;45.63;101791.11;102193;1327;62158;-83
2022/11/30 12:14:16;;;;;;;;;;;;;;;16.44;45.59;101787.39;102173;1333;62216;-83
2022/11/30 12:16:41;;;;;;;;;;;;;;;16.44;45.58;101790.21;102182;1329;63364;-84
2022/11/30 12:19:19;;;;;;;;;;;;;;;16.44;45.64;101792.55;102300;1327;61975;-83
2022/11/30 12:22:03;;;;;;;;;;;;;;;16.44;45.61;101796.98;102176;1330;76423;-84
2022/11/30 12:24:29;;;;;;;;;;;;;;;16.43;45.66;101789.69;102279;1329;61918;-84
2022/11/30 12:26:54;;;;;;;;;;;;;;;16.43;45.62;101785.80;102256;1329;62144;-84
2022/11/30 12:29:24;;;;;;;;;;;;;;;16.42;45.60;101791.14;102211;1322;62195;-84
2022/11/30 12:31:55;;;;;;;;;;;;;;;16.43;45.59;101793.25;102140;1326;76269;-84
2022/11/30 12:34:30;;;;;;;;;;;;;;;16.42;45.52;101787.95;102076;1332;63041;-84